Time,TemperatureF,DewpointF,PressureIn,WindDirection,WindDirectionDegrees,WindSpeedMPH,WindSpeedGustMPH,Humidity,HourlyPrecipIn,Conditions,Clouds,dailyrainin,SoftwareType,DateUTC
2013-07-02 00:00:00,73.2,71.0,30.00,SE,127,1.0,5.0,93,0.01,,,0.37,weatherlink.com 1.10,2013-07-02 04:00:00,
2013-07-02 00:15:00,73.0,71.0,30.00,SSE,156,1.0,3.0,93,0.01,,,0.00,weatherlink.com 1.10,2013-07-02 04:15:00,
2013-07-02 00:30:00,72.9,71.0,30.00,ESE,107,1.0,5.0,93,0.01,,,0.00,weatherlink.com 1.10,2013-07-02 04:30:00,
2013-07-02 00:45:00,73.0,71.0,30.00,ESE,110,2.0,5.0,93,0.01,,,0.00,weatherlink.com 1.10,2013-07-02 04:45:00,
2013-07-02 01:00:00,72.9,71.0,30.00,SE,130,1.0,4.0,93,0.00,,,0.00,weatherlink.com 1.10,2013-07-02 05:00:00,
2013-07-02 01:15:00,72.6,71.0,30.01,SW,217,1.0,3.0,93,0.00,,,0.00,weatherlink.com 1.10,2013-07-02 05:15:00,
2013-07-02 01:30:00,72.2,70.0,30.00,SE,127,1.0,4.0,93,0.00,,,0.00,weatherlink.com 1.10,2013-07-02 05:30:00,
2013-07-02 01:45:00,71.9,70.0,30.00,SE,127,0.0,4.0,93,0.00,,,0.00,weatherlink.com 1.10,2013-07-02 05:45:00,
2013-07-02 02:00:00,71.8,70.0,30.00,SE,133,0.0,4.0,93,0.00,,,0.00,weatherlink.com 1.10,2013-07-02 06:00:00,
2013-07-02 02:15:00,71.6,70.0,30.00,SE,137,2.0,6.0,93,0.00,,,0.00,weatherlink.com 1.10,2013-07-02 06:15:00,
2013-07-02 02:45:00,71.8,70.0,30.00,East,82,5.0,6.0,94,0.00,,,0.00,weatherlink.com 1.10,2013-07-02 06:45:00,
2013-07-02 03:00:00,72.0,70.0,29.99,SE,134,3.0,7.0,94,0.00,,,0.00,weatherlink.com 1.10,2013-07-02 07:00:00,
2013-07-02 03:15:00,72.0,70.0,29.99,SE,127,1.0,6.0,94,0.00,,,0.00,weatherlink.com 1.10,2013-07-02 07:15:00,
2013-07-02 03:30:00,71.9,70.0,29.99,South,172,1.0,4.0,94,0.00,,,0.00,weatherlink.com 1.10,2013-07-02 07:30:00,
2013-07-02 03:45:00,71.7,70.0,29.99,SE,131,1.0,3.0,94,0.00,,,0.00,weatherlink.com 1.10,2013-07-02 07:45:00,
2013-07-02 04:00:00,71.6,70.0,29.99,SE,142,0.0,3.0,94,0.00,,,0.00,weatherlink.com 1.10,2013-07-02 08:00:00,
2013-07-02 04:15:00,71.6,70.0,29.99,SSW,198,2.0,5.0,94,0.00,,,0.00,weatherlink.com 1.10,2013-07-02 08:15:00,
2013-07-02 04:30:00,71.6,70.0,29.98,East,92,2.0,3.0,94,0.01,,,0.01,weatherlink.com 1.10,2013-07-02 08:30:00,
2013-07-02 04:45:00,71.6,70.0,29.99,SE,135,3.0,6.0,94,0.01,,,0.01,weatherlink.com 1.10,2013-07-02 08:45:00,
2013-07-02 05:00:00,71.7,70.0,30.00,SE,143,3.0,5.0,94,0.01,,,0.01,weatherlink.com 1.10,2013-07-02 09:00:00,
2013-07-02 05:16:00,71.8,70.0,30.00,SE,143,3.0,8.0,94,0.01,,,0.01,weatherlink.com 1.10,2013-07-02 09:16:00,
2013-07-02 05:31:00,71.7,70.0,30.00,SE,134,1.0,5.0,94,0.00,,,0.01,weatherlink.com 1.10,2013-07-02 09:31:00,
2013-07-02 05:46:00,71.6,70.0,30.01,SE,142,3.0,7.0,94,0.00,,,0.01,weatherlink.com 1.10,2013-07-02 09:46:00,
2013-07-02 06:01:00,71.6,70.0,30.01,East,101,4.0,5.0,94,0.00,,,0.01,weatherlink.com 1.10,2013-07-02 10:01:00,
2013-07-02 06:16:00,71.5,70.0,30.02,ESE,120,0.0,5.0,94,0.00,,,0.01,weatherlink.com 1.10,2013-07-02 10:16:00,
2013-07-02 06:31:00,71.2,69.0,30.02,ESE,113,0.0,2.0,94,0.00,,,0.01,weatherlink.com 1.10,2013-07-02 10:31:00,
2013-07-02 06:46:00,71.2,69.0,30.02,ESE,123,0.0,2.0,94,0.00,,,0.01,weatherlink.com 1.10,2013-07-02 10:46:00,
2013-07-02 07:01:00,71.1,69.0,30.03,ESE,114,2.0,2.0,94,0.00,,,0.01,weatherlink.com 1.10,2013-07-02 11:01:00,
2013-07-02 07:16:00,71.2,69.0,30.03,ESE,104,1.0,5.0,94,0.00,,,0.01,weatherlink.com 1.10,2013-07-02 11:16:00,
2013-07-02 07:31:00,71.5,70.0,30.04,ESE,119,2.0,7.0,94,0.00,,,0.01,weatherlink.com 1.10,2013-07-02 11:31:00,
2013-07-02 07:46:00,71.8,70.0,30.04,East,96,0.0,3.0,94,0.00,,,0.01,weatherlink.com 1.10,2013-07-02 11:46:00,
2013-07-02 08:01:00,72.1,70.0,30.05,ESE,115,0.0,1.0,94,0.01,,,0.02,weatherlink.com 1.10,2013-07-02 12:01:00,
2013-07-02 08:16:00,73.4,72.0,30.05,SE,146,0.0,2.0,94,0.01,,,0.02,weatherlink.com 1.10,2013-07-02 12:16:00,
2013-07-02 08:31:00,74.7,73.0,30.06,SSW,204,1.0,6.0,93,0.01,,,0.02,weatherlink.com 1.10,2013-07-02 12:31:00,
2013-07-02 08:46:00,74.5,72.0,30.06,ESE,120,4.0,6.0,92,0.01,,,0.02,weatherlink.com 1.10,2013-07-02 12:46:00,
2013-07-02 09:01:00,73.6,72.0,30.06,SSE,148,2.0,6.0,93,0.00,,,0.02,weatherlink.com 1.10,2013-07-02 13:01:00,
2013-07-02 09:16:00,73.0,71.0,30.06,East,94,1.0,3.0,94,0.00,,,0.02,weatherlink.com 1.10,2013-07-02 13:16:00,
2013-07-02 09:31:00,75.0,73.0,30.06,ESE,113,2.0,4.0,93,0.01,,,0.03,weatherlink.com 1.10,2013-07-02 13:31:00,
2013-07-02 09:46:00,76.2,74.0,30.07,ESE,123,1.0,5.0,91,0.01,,,0.03,weatherlink.com 1.10,2013-07-02 13:46:00,
2013-07-02 10:01:00,77.3,74.0,30.07,ESE,113,4.0,6.0,90,0.01,,,0.03,weatherlink.com 1.10,2013-07-02 14:01:00,
2013-07-02 10:16:00,78.8,75.0,30.06,ESE,113,1.0,4.0,88,0.02,,,0.04,weatherlink.com 1.10,2013-07-02 14:16:00,
2013-07-02 10:31:00,80.5,76.0,30.07,SE,128,2.0,4.0,85,0.01,,,0.04,weatherlink.com 1.10,2013-07-02 14:31:00,
2013-07-02 10:46:00,80.9,76.0,30.07,SSW,210,2.0,6.0,84,0.03,,,0.06,weatherlink.com 1.10,2013-07-02 14:46:00,
2013-07-02 11:02:00,80.1,75.0,30.07,SE,126,1.0,5.0,85,0.04,,,0.07,weatherlink.com 1.10,2013-07-02 15:02:00,
2013-07-02 11:17:00,80.9,76.0,30.07,SSE,149,1.0,7.0,84,0.04,,,0.08,weatherlink.com 1.10,2013-07-02 15:17:00,
2013-07-02 11:32:00,81.9,76.0,30.07,SE,124,6.0,6.0,82,0.04,,,0.08,weatherlink.com 1.10,2013-07-02 15:32:00,
2013-07-02 11:47:00,81.4,76.0,30.07,East,84,3.0,7.0,84,0.03,,,0.09,weatherlink.com 1.10,2013-07-02 15:47:00,
2013-07-02 12:02:00,82.3,76.0,30.07,ESE,105,4.0,8.0,81,0.02,,,0.09,weatherlink.com 1.10,2013-07-02 16:02:00,
2013-07-02 12:17:00,79.6,74.0,30.07,SE,142,4.0,13.0,83,0.02,,,0.10,weatherlink.com 1.10,2013-07-02 16:17:00,
2013-07-02 12:32:00,80.1,75.0,30.07,SSE,148,3.0,10.0,83,0.02,,,0.10,weatherlink.com 1.10,2013-07-02 16:32:00,
2013-07-02 12:47:00,80.2,75.0,30.07,SSE,151,3.0,10.0,83,0.01,,,0.10,weatherlink.com 1.10,2013-07-02 16:47:00,
2013-07-02 13:02:00,78.4,73.0,30.08,South,183,4.0,7.0,83,0.02,,,0.11,weatherlink.com 1.10,2013-07-02 17:02:00,
2013-07-02 13:17:00,76.5,72.0,30.08,East,99,0.0,9.0,87,0.01,,,0.11,weatherlink.com 1.10,2013-07-02 17:17:00,
2013-07-02 13:32:00,75.6,73.0,30.09,ESE,122,0.0,1.0,90,0.01,,,0.11,weatherlink.com 1.10,2013-07-02 17:32:00,
2013-07-02 13:47:00,75.1,72.0,30.07,SSW,208,0.0,1.0,91,0.01,,,0.11,weatherlink.com 1.10,2013-07-02 17:47:00,
2013-07-02 14:02:00,75.3,73.0,30.07,SE,131,0.0,2.0,91,0.01,,,0.12,weatherlink.com 1.10,2013-07-02 18:02:00,
2013-07-02 14:17:00,75.2,73.0,30.07,SW,226,0.0,3.0,92,0.01,,,0.12,weatherlink.com 1.10,2013-07-02 18:17:00,
2013-07-02 14:32:00,75.1,73.0,30.07,SSW,210,0.0,2.0,93,0.01,,,0.12,weatherlink.com 1.10,2013-07-02 18:32:00,
2013-07-02 14:47:00,75.6,74.0,30.08,SE,127,1.0,4.0,93,0.01,,,0.12,weatherlink.com 1.10,2013-07-02 18:47:00,
2013-07-02 15:02:00,75.4,73.0,30.07,ESE,119,2.0,6.0,92,0.00,,,0.12,weatherlink.com 1.10,2013-07-02 19:02:00,
2013-07-02 15:17:00,75.6,73.0,30.07,SW,235,0.0,5.0,92,0.01,,,0.13,weatherlink.com 1.10,2013-07-02 19:17:00,
2013-07-02 15:32:00,75.7,73.0,30.06,South,170,2.0,3.0,92,0.01,,,0.13,weatherlink.com 1.10,2013-07-02 19:32:00,
2013-07-02 15:47:00,76.0,74.0,30.06,South,176,2.0,2.0,92,0.01,,,0.13,weatherlink.com 1.10,2013-07-02 19:47:00,
2013-07-02 16:02:00,76.6,74.0,30.06,SSE,165,3.0,4.0,92,0.01,,,0.13,weatherlink.com 1.10,2013-07-02 20:02:00,
2013-07-02 16:17:00,77.5,74.0,30.05,SE,143,3.0,5.0,90,0.00,,,0.13,weatherlink.com 1.10,2013-07-02 20:17:00,
2013-07-02 16:32:00,78.1,75.0,30.05,ESE,106,1.0,6.0,89,0.00,,,0.13,weatherlink.com 1.10,2013-07-02 20:32:00,
2013-07-02 16:47:00,79.8,75.0,30.04,SE,135,0.0,4.0,85,0.01,,,0.14,weatherlink.com 1.10,2013-07-02 20:47:00,
2013-07-02 17:02:00,80.1,75.0,30.04,ESE,116,1.0,5.0,84,0.01,,,0.14,weatherlink.com 1.10,2013-07-02 21:02:00,
2013-07-02 17:17:00,80.7,75.0,30.05,SE,136,1.0,4.0,83,0.01,,,0.14,weatherlink.com 1.10,2013-07-02 21:17:00,
2013-07-02 17:32:00,80.3,75.0,30.05,SE,131,0.0,4.0,84,0.01,,,0.14,weatherlink.com 1.10,2013-07-02 21:32:00,
2013-07-02 17:47:00,80.6,76.0,30.05,East,100,5.0,7.0,85,0.00,,,0.14,weatherlink.com 1.10,2013-07-02 21:47:00,
2013-07-02 18:02:00,80.2,75.0,30.06,SE,128,4.0,7.0,85,0.00,,,0.14,weatherlink.com 1.10,2013-07-02 22:02:00,
2013-07-02 18:17:00,81.4,76.0,30.06,SSE,158,2.0,7.0,84,0.00,,,0.14,weatherlink.com 1.10,2013-07-02 22:17:00,
2013-07-02 18:32:00,81.9,76.0,30.06,SSE,153,1.0,7.0,81,0.00,,,0.14,weatherlink.com 1.10,2013-07-02 22:32:00,
2013-07-02 18:47:00,80.8,76.0,30.06,ESE,103,1.0,7.0,86,0.01,,,0.15,weatherlink.com 1.10,2013-07-02 22:47:00,
2013-07-02 19:02:00,80.4,76.0,30.07,ENE,77,3.0,4.0,87,0.01,,,0.15,weatherlink.com 1.10,2013-07-02 23:02:00,
2013-07-02 19:17:00,79.6,76.0,30.08,South,186,5.0,6.0,89,0.01,,,0.15,weatherlink.com 1.10,2013-07-02 23:17:00,
2013-07-02 19:32:00,76.9,74.0,30.09,South,181,7.0,9.0,90,0.01,,,0.15,weatherlink.com 1.10,2013-07-02 23:32:00,
2013-07-02 19:47:00,74.4,72.0,30.09,East,96,0.0,3.0,92,0.00,,,0.15,weatherlink.com 1.10,2013-07-02 23:47:00,
2013-07-02 20:02:00,73.8,72.0,30.09,ENE,61,0.0,1.0,93,0.02,,,0.17,weatherlink.com 1.10,2013-07-03 00:02:00,
2013-07-02 20:17:00,74.0,72.0,30.09,ESE,122,0.0,1.0,94,0.03,,,0.18,weatherlink.com 1.10,2013-07-03 00:17:00,
2013-07-02 20:32:00,74.2,72.0,30.10,SSW,197,3.0,6.0,94,0.04,,,0.19,weatherlink.com 1.10,2013-07-03 00:32:00,
2013-07-02 20:47:00,74.1,72.0,30.10,SSE,167,1.0,3.0,94,0.04,,,0.20,weatherlink.com 1.10,2013-07-03 00:47:00,
2013-07-02 21:02:00,73.7,72.0,30.10,East,100,0.0,3.0,94,0.03,,,0.20,weatherlink.com 1.10,2013-07-03 01:02:00,
2013-07-02 21:17:00,73.6,72.0,30.11,East,100,0.0,3.0,95,0.03,,,0.21,weatherlink.com 1.10,2013-07-03 01:17:00,
2013-07-02 21:32:00,73.5,72.0,30.11,ENE,70,0.0,1.0,95,0.03,,,0.22,weatherlink.com 1.10,2013-07-03 01:32:00,
2013-07-02 22:02:00,73.4,72.0,30.12,ESE,112,0.0,4.0,95,0.02,,,0.23,weatherlink.com 1.10,2013-07-03 02:02:00,
2013-07-02 22:17:00,73.3,72.0,30.12,East,101,0.0,5.0,95,0.03,,,0.24,weatherlink.com 1.10,2013-07-03 02:17:00,
2013-07-02 22:32:00,73.3,72.0,30.12,South,170,0.0,2.0,96,0.03,,,0.25,weatherlink.com 1.10,2013-07-03 02:32:00,
2013-07-02 22:47:00,73.3,72.0,30.14,SE,141,0.0,0.0,96,0.02,,,0.25,weatherlink.com 1.10,2013-07-03 02:47:00,
2013-07-02 23:02:00,73.0,72.0,30.14,SE,146,1.0,4.0,96,0.03,,,0.26,weatherlink.com 1.10,2013-07-03 03:02:00,
2013-07-02 23:17:00,72.7,72.0,30.14,SE,134,2.0,4.0,96,0.03,,,0.27,weatherlink.com 1.10,2013-07-03 03:17:00,
2013-07-02 23:32:00,71.8,70.0,30.14,South,181,2.0,10.0,95,0.03,,,0.28,weatherlink.com 1.10,2013-07-03 03:32:00,
2013-07-02 23:47:00,70.8,69.0,30.13,SE,132,0.0,7.0,95,0.04,,,0.29,weatherlink.com 1.10,2013-07-03 03:47:00,